Terminal Aerodrome Forecast
Issued by NWS

Home | Current Version | Previous Version | Text Only | Print | Product List | Glossary On
Versions: 1 2 3 4 5 6 7 8 9 10 11 12 13
000
FTUS46 KLOX 302324
TAFPMD
TAF
KPMD 302324Z 3100/3124 25017G25KT P6SM SKC
     FM310300 28014KT P6SM SKC
     FM310600 24008KT P6SM SKC
     FM311000 VRB04KT P6SM SKC
     FM311800 25010KT P6SM SKC
     FM312200 25015G25KT P6SM SKC=

USA.gov is the U.S. government's official web portal to all federal, state and local government web resources and services.